Terminal Aerodrome Forecast
Issued by NWS Cleveland, OH

Home | Current Version | Previous Version | Graphics & Text | Print | Product List | Glossary On
Versions: 1 2 3 4 5 6 7 8 9 10 11 12 13 14 15 16 17 18 19
367
FTUS41 KCLE 211303 AAA
TAFMFD
TAF AMD
KMFD 211303Z 2113/2212 33005KT 3/4SM BR OVC002
     FM211600 30008KT 1 1/2SM BR OVC006
      TEMPO 2116/2118 3SM BR OVC010
     FM211800 30008KT P6SM SCT012
     FM220400 33010G20KT P6SM BKN035=

USA.gov is the U.S. government's official web portal to all federal, state and local government web resources and services.